createdAt,value
2022-10-19T00:01:26.514Z,7.20
2022-10-19T00:11:26.272Z,6.30
2022-10-19T00:21:25.754Z,7.90
2022-10-19T00:31:25.420Z,6.30
2022-10-19T00:41:25.198Z,5.60
2022-10-19T00:51:24.999Z,5.00
2022-10-19T01:01:24.398Z,5.40
2022-10-19T01:11:23.959Z,4.30
2022-10-19T01:21:23.611Z,7.10
2022-10-19T01:31:23.388Z,6.80
2022-10-19T01:41:23.024Z,6.50
2022-10-19T01:51:22.664Z,5.60
2022-10-19T02:01:22.133Z,5.10
2022-10-19T02:11:21.782Z,5.70
2022-10-19T02:21:21.557Z,5.70
2022-10-19T02:31:21.050Z,4.80
2022-10-19T02:41:21.018Z,5.40
2022-10-19T02:51:20.479Z,5.80
2022-10-19T03:01:20.014Z,5.10
2022-10-19T03:11:19.597Z,5.70
2022-10-19T03:21:19.241Z,8.30
2022-10-19T03:31:19.032Z,7.00
2022-10-19T03:41:18.518Z,7.00
2022-10-19T03:51:18.498Z,6.10
2022-10-19T04:01:17.853Z,7.10
2022-10-19T04:11:17.579Z,5.80
2022-10-19T04:21:11.795Z,6.40
2022-10-19T04:31:11.600Z,6.10
2022-10-19T04:41:11.072Z,7.20
2022-10-19T04:51:10.696Z,7.10
2022-10-19T05:01:10.495Z,7.60
2022-10-19T05:11:10.038Z,5.50
2022-10-19T05:21:09.628Z,6.10
2022-10-19T05:31:09.095Z,7.80
2022-10-19T05:41:08.684Z,8.30
2022-10-19T05:51:08.417Z,8.40
2022-10-19T06:01:07.862Z,10.30
2022-10-19T06:11:07.632Z,12.30
2022-10-19T06:21:07.061Z,11.20
2022-10-19T06:31:07.285Z,10.40
2022-10-19T06:41:06.260Z,11.50
2022-10-19T06:51:06.526Z,13.50
2022-10-19T07:01:05.611Z,13.30
2022-10-19T07:11:05.215Z,12.00
2022-10-19T07:20:59.642Z,14.50
2022-10-19T07:30:59.240Z,10.30
2022-10-19T07:40:58.842Z,11.20
2022-10-19T07:50:58.582Z,12.10
2022-10-19T08:00:58.203Z,13.20
2022-10-19T08:10:57.824Z,11.20
2022-10-19T08:20:58.703Z,11.60
2022-10-19T08:30:56.890Z,12.40
2022-10-19T08:40:56.635Z,8.00
2022-10-19T08:50:56.242Z,9.50
2022-10-19T09:00:55.682Z,9.90
2022-10-19T09:10:55.469Z,9.70
2022-10-19T09:20:54.913Z,9.30
2022-10-19T09:30:54.847Z,6.60
2022-10-19T09:40:54.142Z,8.60
2022-10-19T09:50:54.080Z,7.10
2022-10-19T10:00:53.895Z,6.40
2022-10-19T10:10:53.931Z,8.30
2022-10-19T10:20:53.391Z,5.60
2022-10-19T10:30:53.193Z,6.70
2022-10-19T10:40:53.082Z,7.30
2022-10-19T10:50:53.141Z,8.40
2022-10-19T11:00:53.055Z,6.40
2022-10-19T11:10:52.903Z,6.80
2022-10-19T11:20:52.901Z,5.80
2022-10-19T11:30:52.915Z,7.40
2022-10-19T11:41:13.040Z,7.50
2022-10-19T11:50:53.972Z,4.60
2022-10-19T12:00:58.261Z,4.80
2022-10-19T12:10:58.050Z,4.90
2022-10-19T12:20:57.347Z,3.50
2022-10-19T12:30:57.251Z,4.70
2022-10-19T12:40:56.532Z,4.50
2022-10-19T12:50:56.455Z,3.60
2022-10-19T13:00:55.940Z,10.90
2022-10-19T13:10:55.368Z,11.00
2022-10-19T13:20:55.164Z,4.50
2022-10-19T13:31:03.273Z,5.70
2022-10-19T13:40:59.756Z,5.40
2022-10-19T13:50:59.381Z,4.20
2022-10-19T14:00:59.138Z,5.00
2022-10-19T14:11:00.885Z,4.50
2022-10-19T14:20:58.185Z,6.50
2022-10-19T14:30:57.824Z,5.90
2022-10-19T14:41:03.066Z,6.60
2022-10-19T14:51:02.681Z,5.90
2022-10-19T15:01:02.280Z,8.20
2022-10-19T15:11:01.864Z,4.60
2022-10-19T15:21:11.527Z,7.10
2022-10-19T15:31:00.917Z,4.40
2022-10-19T15:41:00.667Z,5.80
2022-10-19T15:51:00.403Z,6.20
2022-10-19T16:01:05.689Z,5.90
2022-10-19T16:11:05.296Z,6.30
2022-10-19T16:21:04.927Z,4.70
2022-10-19T16:31:04.540Z,5.60
2022-10-19T16:41:04.037Z,7.90
2022-10-19T16:51:03.977Z,10.80
2022-10-19T17:01:03.276Z,6.90
2022-10-19T17:11:02.953Z,6.70
2022-10-19T17:21:02.568Z,7.20
2022-10-19T17:31:02.228Z,6.00
2022-10-19T17:41:02.000Z,6.20
2022-10-19T17:51:01.985Z,5.90
2022-10-19T18:01:01.957Z,5.10
2022-10-19T18:11:02.165Z,5.70
2022-10-19T18:21:02.018Z,7.60
2022-10-19T18:31:02.036Z,7.60
2022-10-19T18:41:02.075Z,8.20
2022-10-19T18:51:02.028Z,6.80
2022-10-19T19:01:01.992Z,9.60
2022-10-19T19:11:02.221Z,9.20
2022-10-19T19:21:02.033Z,7.30
2022-10-19T19:31:01.828Z,7.90
2022-10-19T19:41:01.939Z,7.10
2022-10-19T19:51:01.878Z,9.10
2022-10-19T20:01:01.719Z,9.60
2022-10-19T20:11:01.805Z,8.60
2022-10-19T20:21:01.399Z,8.40
2022-10-19T20:31:01.558Z,9.00
2022-10-19T20:41:01.981Z,8.40
2022-10-19T20:51:00.888Z,7.70
2022-10-19T21:01:00.669Z,8.30
2022-10-19T21:11:00.572Z,9.50
2022-10-19T21:21:00.207Z,8.70
2022-10-19T21:31:00.212Z,7.60
2022-10-19T21:40:59.847Z,8.20
2022-10-19T21:50:59.813Z,9.40
2022-10-19T22:00:59.489Z,8.40
2022-10-19T22:10:59.498Z,9.80
2022-10-19T22:20:59.256Z,11.80
2022-10-19T22:30:59.323Z,12.30
2022-10-19T22:40:59.215Z,12.20
2022-10-19T22:50:59.060Z,10.50
2022-10-19T23:00:58.792Z,10.60
2022-10-19T23:10:58.844Z,10.80
2022-10-19T23:20:58.741Z,10.30
2022-10-19T23:30:58.678Z,11.00
2022-10-19T23:40:58.588Z,10.00
2022-10-19T23:50:58.275Z,10.80
